Airfield :
LOGIN :

Register | Disclaimer

   EN    FR    IT 

 










Legend :    VFR   Marginal VFR   IFR   Intensive IFR   Very Intensive IFR
Visi :
Ceiling :
>= 8 km
>= 3000ft
5 to 8 km
1000 to 3000 ft
1500m to 5 km
500 to 1000 ft
800 to 1500m
200 to 500 ft
< 800m
< 200 ft
Symbols :   Thunderstorms  Fog  Heavy snow  Heavy precipitations  Wind > 20 kt
SIGMETs :     Misc.  Thunderstorms  Icing  Turbulence  Mountain Waves  Volcanic Ashes






- Airport Elevation : 1558 ft
- IATA code : IOA


LGIO - Ioannina

CURRENT METAR :
  • 171850Z AUTO 14006KT //// // ////// 16/09 Q1012 RE//

EXPIRED METARs :
  • 171820Z AUTO VRB02KT //// // ////// 18/10 Q1012 RE//
  • 171750Z 09001KT 9999 FEW080 17/09 Q1012
  • 171720Z AUTO 28004KT 250V310 //// // ////// 20/09 Q1012 RE//
  • 171650Z AUTO 23005KT 180V260 //// // ////// 21/08 Q1012 RE//
  • 171620Z AUTO 23006KT 200V310 //// // ////// 22/07 Q1012 RE//

TAF TAF LGIO
Valid from the 17 at 18:00 until the 18 at 03:00 UTC


171700Z 1718/1803 VRB03KT 9999 FEW025
PROB40 1800/1803 3000 BR SCT005



MET'MAP, your aeronautical weather chart ! - Copyright ORBIFLY December 2007 - Disclaimer

ORBIFLY MET'MAP TEAM :

Programming & Development : Alexandra Zaïnal
Concept & original design : Baudouin d'Aumeries
Assistance for programming : Marc-Olivier Méhu
Technical & hardware support : Manuel Goepfert

Contact : metmap@orbifly.com




SOURCES & CREDITS :

   NOAA